Hauptseite
METAR-TAF:

METAR-TAF

Flughäfen :

Heeresflugplatz Altenstadt

Altenstadt, Deutschland

Breite: 47-50N, Länge: 010-52E, Höhe: 739 m

Beobachtung

Neuester Wetterbericht von vor 1 Stunde und 5 Minuten, um 18:20 UTC
Wind 9 kt aus Ost
Temperatur 16°C
Luftfeuchtigkeit 68%
Luftdruck 1020 hPa
Sichtweite 10 km oder mehr
Leicht bewölkt in der Höhe von 6000 ft

METAR: ETHA 051820Z 08009KT 9999 FEW060 16/10 Q1020 BLU+

Zeit: 21:25 (19:25 UTC)

Prognose

Neuester Wetterbericht von vor 6 Stunden und 6 Minuten, um 13:19 UTC
Gültige Prognose vom 05 um 14 UTC bis 05 um 23 UTC
Wind 12 kt aus Ost, Böen bis zu 22 kt
Sichtweite 10 km oder mehr
Leicht bewölkt in der Höhe von 5000 ft
Übergehend zu
vom 05 um 15 UTC bis 05 um 17 UTC
Wind 8 kt aus Ost/Nordost
Sichtweite 10 km oder mehr
Himmel klar

TAF: ETHA 051319Z 0514/0523 09012G22KT 9999 NSW FEW050 BECMG 0515/0517 07008KT 9999 NSW SKC

Wetterbeobachtungen und Prognosen von mehr als 4000 Flughäfen (METAR und TAF Bericht).

Die verfügbaren Stationen werden durch gelbe und rote Markierungen auf der Karte dargestellt.

Führen Sie die Maus auf sie, um den Namen der Station zu sehen.

Darauf klicken, um die Beobachtung von Wetterbeobachtungen und Prognosen zu sehen.

Um die Karte zu ändern : klicken Sie auf den grünen Tasten mit einem schwarzen Kreuz Zum Vergrößern, auf den grünen Button mit einem Gedankenstrich zu verkleinern, oder auf die grünen Pfeile für benachbarte Karten.


METAR-TAF: